Time;durP1;ratioP1;P1;durP2;ratioP2;P2;SDS_P1;SDS_P2;PMS_P1;PMS_P2;Temp;Humidity;BMP_temperature;BMP_pressure;BME280_temperature;BME280_humidity;BME280_pressure;Samples;Min_cycle;Max_cycle;Signal;HPM_P1;HPM_P2
2022/07/04 07:34:48;;;;;;;3.28;2.20;;;23.50;99.90;;;;;;6099483;28;90473;-96
2022/07/04 07:37:50;;;;;;;3.00;2.20;;;23.50;99.90;;;;;;6098139;28;87488;-96
2022/07/04 07:47:29;;;;;;;4.20;2.20;;;23.60;99.90;;;;;;6095740;28;87876;-96
2022/07/04 07:50:33;;;;;;;2.33;2.00;;;23.60;99.90;;;;;;6085454;28;87147;-96
2022/07/04 08:22:03;;;;;;;2.45;2.25;;;23.70;99.90;;;;;;6107528;28;89473;-96
2022/07/04 08:31:39;;;;;;;2.85;2.55;;;23.70;99.90;;;;;;6104461;28;89357;-96
2022/07/04 08:49:43;;;;;;;2.40;2.20;;;23.70;99.90;;;;;;6107577;28;89686;-94
2022/07/04 09:06:16;;;;;;;2.33;2.13;;;23.70;99.90;;;;;;6110548;28;89273;-95
2022/07/04 09:09:19;;;;;;;2.53;2.30;;;23.70;99.90;;;;;;6112319;28;89114;-96
2022/07/04 09:18:56;;;;;;;2.92;2.17;;;23.80;99.90;;;;;;6098100;28;90712;-95
2022/07/04 09:22:12;;;;;;;2.40;2.20;;;23.80;99.90;;;;;;6105365;28;88207;-96
2022/07/04 09:31:48;;;;;;;2.30;2.10;;;23.80;99.90;;;;;;6099537;28;88935;-96
2022/07/04 09:42:00;;;;;;;2.47;2.28;;;23.80;99.90;;;;;;6106223;28;89996;-96
2022/07/04 09:58:48;;;;;;;2.50;2.30;;;23.80;99.90;;;;;;6106893;28;90019;-96
2022/07/04 10:09:31;;;;;;;2.35;2.15;;;23.80;99.90;;;;;;6098645;28;89276;-96
2022/07/04 10:12:36;;;;;;;3.38;2.35;;;23.80;99.90;;;;;;6092664;28;89660;-96
2022/07/04 10:18:57;;;;;;;3.47;2.17;;;23.80;99.90;;;;;;6098094;28;91424;-95
2022/07/04 10:22:00;;;;;;;2.42;2.22;;;23.90;99.90;;;;;;6091860;28;91275;-95
2022/07/04 10:25:18;;;;;;;2.78;2.25;;;23.80;99.90;;;;;;6094469;28;89437;-95
2022/07/04 10:41:57;;;;;;;2.92;1.90;;;23.90;99.90;;;;;;6109761;28;89592;-95
2022/07/04 10:45:02;;;;;;;2.42;2.00;;;23.90;99.90;;;;;;6105575;28;89504;-96
2022/07/04 11:02:29;;;;;;;2.95;2.28;;;23.90;99.90;;;;;;6104741;28;89377;-96
2022/07/04 11:12:30;;;;;;;2.65;2.45;;;23.90;99.90;;;;;;6103011;28;90480;-95
2022/07/04 11:27:24;;;;;;;3.10;2.25;;;24.00;99.90;;;;;;6122271;28;91518;-96
2022/07/04 11:30:36;;;;;;;3.00;2.17;;;23.90;99.90;;;;;;6119206;28;90391;-96
2022/07/04 11:33:39;;;;;;;3.17;2.70;;;24.00;99.90;;;;;;6109341;28;88103;-94
2022/07/04 11:36:42;;;;;;;3.47;2.75;;;24.00;99.90;;;;;;6101577;28;88867;-96
2022/07/04 11:46:59;;;;;;;2.42;2.22;;;24.20;99.90;;;;;;6094068;28;90094;-96
2022/07/04 11:57:37;;;;;;;3.00;2.60;;;24.20;99.90;;;;;;6109656;28;89538;-96
2022/07/04 12:00:40;;;;;;;3.05;2.75;;;24.20;99.90;;;;;;6093990;28;90689;-95
2022/07/04 12:06:57;;;;;;;3.00;2.78;;;24.10;99.90;;;;;;6122246;28;89974;-95
2022/07/04 12:17:35;;;;;;;2.80;2.60;;;24.20;99.90;;;;;;6127027;28;89493;-96
2022/07/04 12:27:20;;;;;;;2.80;2.60;;;24.20;99.90;;;;;;6121746;28;89553;-95
2022/07/04 12:30:23;;;;;;;3.30;2.53;;;24.10;99.90;;;;;;6123267;28;89465;-95
2022/07/04 12:51:55;;;;;;;3.33;2.60;;;24.20;99.90;;;;;;6120336;28;89278;-96
2022/07/04 12:55:06;;;;;;;3.10;2.90;;;24.20;99.90;;;;;;6119705;28;89072;-95
2022/07/04 13:01:28;;;;;;;2.80;2.60;;;24.20;99.90;;;;;;6114550;28;89523;-96
2022/07/04 13:08:49;;;;;;;2.80;2.60;;;24.20;99.90;;;;;;6116289;28;91295;-96
2022/07/04 13:12:27;;;;;;;2.65;2.45;;;24.20;99.90;;;;;;6120140;28;90129;-96
2022/07/04 13:18:49;;;;;;;2.67;2.47;;;24.20;99.90;;;;;;6120719;28;87093;-95
2022/07/04 13:35:59;;;;;;;2.60;2.40;;;24.20;99.90;;;;;;6116851;28;90432;-96
2022/07/04 13:56:23;;;;;;;2.50;2.30;;;24.30;99.90;;;;;;6114751;28;89371;-95
2022/07/04 13:59:26;;;;;;;2.42;2.22;;;24.30;99.90;;;;;;6117316;28;87078;-95
2022/07/04 14:05:45;;;;;;;3.10;2.83;;;24.30;99.90;;;;;;6093648;28;89898;-95
2022/07/04 14:15:26;;;;;;;4.22;2.75;;;24.30;99.90;;;;;;6107808;28;91371;-96
2022/07/04 14:50:10;;;;;;;11.75;5.63;;;24.30;99.90;;;;;;6107656;28;90535;-93
2022/07/04 14:53:15;;;;;;;9.82;5.43;;;24.30;99.90;;;;;;6115612;28;88349;-94
2022/07/04 14:56:18;;;;;;;6.45;3.75;;;24.30;99.90;;;;;;6110751;28;87400;-95
2022/07/04 15:02:38;;;;;;;10.95;5.07;;;24.30;99.90;;;;;;6112962;28;89340;-95
2022/07/04 15:05:41;;;;;;;9.35;4.97;;;24.30;99.90;;;;;;6085781;28;88327;-95
2022/07/04 15:08:43;;;;;;;10.95;5.55;;;24.30;99.90;;;;;;6086223;28;89297;-95
2022/07/04 15:15:01;;;;;;;8.20;5.00;;;24.30;99.90;;;;;;6096713;28;89916;-95
2022/07/04 15:18:05;;;;;;;8.77;4.70;;;24.30;99.90;;;;;;6091467;28;90090;-95
2022/07/04 15:27:55;;;;;;;9.10;4.63;;;24.30;99.90;;;;;;6101764;28;90420;-95
2022/07/04 15:34:43;;;;;;;7.28;3.90;;;24.40;99.90;;;;;;6100436;28;90577;-95
2022/07/04 15:37:52;;;;;;;5.07;3.63;;;24.30;99.90;;;;;;6102316;28;87163;-95
2022/07/04 15:40:54;;;;;;;6.38;3.50;;;24.40;99.90;;;;;;6100869;28;90047;-95
2022/07/04 15:43:56;;;;;;;4.38;3.20;;;24.40;99.90;;;;;;6098885;28;90459;-95
2022/07/04 15:47:10;;;;;;;5.30;3.50;;;24.40;99.90;;;;;;6107428;28;88433;-94
2022/07/04 15:50:13;;;;;;;5.75;3.42;;;24.40;99.90;;;;;;6106250;28;89674;-95
2022/07/04 15:53:17;;;;;;;5.85;3.35;;;24.30;99.90;;;;;;6092135;28;90314;-94
2022/07/04 15:56:20;;;;;;;4.97;3.13;;;24.30;99.90;;;;;;6099652;28;89130;-94
2022/07/04 16:06:43;;;;;;;4.78;3.05;;;24.40;99.90;;;;;;6123865;28;88404;-96
2022/07/04 16:09:47;;;;;;;3.53;3.00;;;24.40;99.90;;;;;;6111536;28;88229;-94
2022/07/04 16:16:07;;;;;;;5.10;3.67;;;24.40;99.90;;;;;;6105754;28;89379;-95
2022/07/04 16:19:12;;;;;;;4.25;3.25;;;24.50;99.90;;;;;;6105810;28;89955;-94
2022/07/04 16:22:15;;;;;;;4.78;3.10;;;24.40;99.90;;;;;;6097141;28;88245;-95
2022/07/04 16:25:20;;;;;;;3.45;2.88;;;24.50;99.90;;;;;;6109800;28;89252;-95
2022/07/04 16:28:22;;;;;;;3.40;2.90;;;24.50;99.90;;;;;;6108858;28;88427;-95
2022/07/04 16:31:25;;;;;;;3.63;2.80;;;24.50;99.90;;;;;;6109058;28;89052;-95
2022/07/04 16:34:33;;;;;;;4.05;3.00;;;24.60;99.90;;;;;;6117776;28;88364;-95
2022/07/04 16:37:37;;;;;;;3.85;2.92;;;24.60;99.90;;;;;;6122085;28;87157;-95
2022/07/04 16:40:41;;;;;;;3.33;2.70;;;24.60;99.90;;;;;;6117064;28;88555;-95
2022/07/04 16:43:43;;;;;;;3.00;2.70;;;24.60;99.90;;;;;;6116650;28;89142;-96
2022/07/04 16:46:45;;;;;;;2.75;2.55;;;24.60;99.90;;;;;;6116527;28;88341;-95
2022/07/04 16:53:06;;;;;;;3.50;2.70;;;24.60;99.90;;;;;;6110749;28;90450;-95
2022/07/04 16:56:15;;;;;;;3.10;2.90;;;24.60;99.90;;;;;;6104658;28;90314;-95
2022/07/04 16:59:18;;;;;;;2.70;2.50;;;24.60;99.90;;;;;;6104235;28;89072;-95
2022/07/04 17:02:20;;;;;;;3.22;2.92;;;24.60;99.90;;;;;;6098877;28;88385;-95
2022/07/04 17:05:23;;;;;;;3.17;2.67;;;24.60;99.90;;;;;;6088779;28;87404;-93
2022/07/04 17:08:24;;;;;;;4.55;2.95;;;24.60;99.90;;;;;;6089887;28;88444;-95
2022/07/04 17:27:52;;;;;;;3.53;2.90;;;24.70;99.90;;;;;;6141776;28;90867;-96
2022/07/04 17:30:54;;;;;;;3.92;3.00;;;24.70;99.90;;;;;;6145341;28;88024;-95
2022/07/04 17:33:56;;;;;;;4.65;3.03;;;24.70;99.90;;;;;;6136689;28;89388;-93
2022/07/04 17:36:59;;;;;;;6.68;3.10;;;24.70;99.90;;;;;;6135631;28;88080;-94
2022/07/04 17:40:05;;;;;;;4.03;2.80;;;24.70;99.90;;;;;;6139764;28;87988;-94
2022/07/04 17:43:08;;;;;;;5.30;2.97;;;24.70;99.90;;;;;;6139178;28;89267;-94
2022/07/04 17:46:11;;;;;;;5.72;3.00;;;24.70;99.90;;;;;;6133396;28;88486;-93
2022/07/04 17:49:14;;;;;;;4.15;3.20;;;24.70;99.90;;;;;;6119473;28;87181;-95
2022/07/04 17:52:17;;;;;;;7.88;4.00;;;24.70;99.90;;;;;;6101977;28;89790;-95
2022/07/04 17:55:19;;;;;;;4.63;3.35;;;24.70;99.90;;;;;;6096325;28;88424;-94
2022/07/04 17:58:24;;;;;;;9.52;4.47;;;24.70;99.90;;;;;;6090870;28;90511;-94
2022/07/04 18:01:26;;;;;;;5.25;3.60;;;24.70;99.90;;;;;;6093112;28;89235;-94
2022/07/04 18:04:28;;;;;;;9.95;4.10;;;24.70;99.90;;;;;;6096159;28;90153;-94
2022/07/04 18:07:30;;;;;;;8.63;4.57;;;24.60;99.90;;;;;;6097900;28;89711;-94
2022/07/04 18:10:33;;;;;;;8.27;4.80;;;24.70;99.90;;;;;;6108901;28;89401;-95
2022/07/04 18:13:36;;;;;;;8.43;4.00;;;24.70;99.90;;;;;;6095003;28;88656;-95
2022/07/04 18:16:39;;;;;;;5.75;3.80;;;24.70;99.90;;;;;;6101790;28;89143;-94
2022/07/04 18:19:42;;;;;;;7.97;3.90;;;24.60;99.90;;;;;;6103896;28;88260;-94
2022/07/04 18:22:44;;;;;;;9.18;4.28;;;24.60;99.90;;;;;;6099493;28;88450;-95
2022/07/04 18:25:46;;;;;;;6.07;3.95;;;24.60;99.90;;;;;;6105798;28;88046;-94
2022/07/04 18:28:52;;;;;;;9.88;4.95;;;24.60;99.90;;;;;;6092892;28;89334;-94
2022/07/04 18:31:56;;;;;;;10.57;5.47;;;24.60;99.90;;;;;;6097945;28;88365;-95
2022/07/04 18:35:00;;;;;;;10.25;4.47;;;24.60;99.90;;;;;;6084133;28;89440;-94
2022/07/04 18:38:04;;;;;;;6.38;4.00;;;24.60;99.90;;;;;;6095298;28;89524;-95
2022/07/04 18:44:27;;;;;;;4.82;3.50;;;24.60;99.90;;;;;;6104576;28;91094;-95
2022/07/04 18:47:30;;;;;;;5.30;3.80;;;24.70;99.90;;;;;;6104149;28;89470;-95
2022/07/04 18:50:32;;;;;;;4.10;3.50;;;24.60;99.90;;;;;;6102808;28;88685;-95
2022/07/04 18:53:36;;;;;;;5.70;3.53;;;24.70;99.90;;;;;;6102860;28;89302;-94
2022/07/04 18:56:38;;;;;;;6.03;3.90;;;24.60;99.90;;;;;;6085749;28;89673;-94
2022/07/04 18:59:42;;;;;;;6.40;3.75;;;24.60;99.90;;;;;;6090531;28;89110;-94
2022/07/04 19:02:45;;;;;;;4.97;3.50;;;24.70;99.90;;;;;;6099000;28;88148;-94
2022/07/04 19:05:47;;;;;;;5.32;3.30;;;24.70;99.90;;;;;;6093723;28;89620;-94
2022/07/04 19:12:06;;;;;;;5.35;3.22;;;24.70;99.90;;;;;;6104919;28;89745;-95
2022/07/04 19:15:12;;;;;;;5.88;3.35;;;24.60;99.90;;;;;;6098084;28;89055;-94
2022/07/04 19:18:14;;;;;;;4.18;3.08;;;24.60;99.90;;;;;;6091937;28;89117;-95
2022/07/04 19:21:21;;;;;;;5.45;4.00;;;24.60;99.90;;;;;;6089773;28;87939;-94
2022/07/04 19:27:40;;;;;;;4.18;2.97;;;24.60;99.90;;;;;;6110159;28;89092;-95
2022/07/04 19:30:44;;;;;;;4.13;2.90;;;24.70;99.90;;;;;;6112700;28;91451;-95
2022/07/04 19:33:48;;;;;;;3.20;2.90;;;24.70;99.90;;;;;;6091214;28;87201;-95
2022/07/04 19:40:09;;;;;;;3.28;2.65;;;24.80;99.90;;;;;;6093748;28;90350;-94
2022/07/04 19:46:30;;;;;;;3.88;2.95;;;24.70;99.90;;;;;;6105888;28;88705;-95
2022/07/04 19:49:32;;;;;;;5.35;2.90;;;24.80;99.90;;;;;;6089047;28;89622;-95
2022/07/04 19:55:51;;;;;;;4.40;2.63;;;24.80;99.90;;;;;;6098600;28;90610;-93
2022/07/04 20:02:11;;;;;;;2.88;2.50;;;24.70;99.90;;;;;;6091918;28;90446;-95
2022/07/04 20:05:13;;;;;;;4.03;2.90;;;24.70;99.90;;;;;;6102183;28;88103;-95
2022/07/04 20:08:15;;;;;;;3.15;2.85;;;24.70;99.90;;;;;;6072399;28;87649;-94
2022/07/04 20:11:18;;;;;;;3.05;2.85;;;24.70;99.90;;;;;;6110494;28;89433;-93
2022/07/04 20:14:20;;;;;;;4.13;2.80;;;24.70;99.90;;;;;;6098870;28;91406;-95
2022/07/04 20:17:27;;;;;;;6.18;3.30;;;24.70;99.90;;;;;;6102356;28;88784;-94
2022/07/04 20:20:32;;;;;;;3.10;2.90;;;24.70;99.90;;;;;;6112461;28;89132;-94
2022/07/04 20:23:35;;;;;;;4.13;2.83;;;24.70;99.90;;;;;;6097517;28;88898;-93
2022/07/04 20:26:37;;;;;;;2.97;2.58;;;24.70;99.90;;;;;;6104883;28;89291;-94
2022/07/04 20:29:39;;;;;;;3.22;2.92;;;24.70;99.90;;;;;;6102171;28;89056;-93
2022/07/04 20:32:45;;;;;;;3.47;2.90;;;24.70;99.90;;;;;;6095159;28;89962;-93
2022/07/04 20:35:47;;;;;;;3.85;2.70;;;24.70;99.90;;;;;;6106699;28;89045;-94
2022/07/04 20:38:49;;;;;;;3.47;3.17;;;24.70;99.90;;;;;;6107353;28;89163;-94
2022/07/04 20:45:09;;;;;;;3.30;2.70;;;24.70;99.90;;;;;;6102465;28;92279;-95
2022/07/04 20:48:13;;;;;;;2.75;2.55;;;24.70;99.90;;;;;;6102645;28;88020;-94
2022/07/04 20:51:15;;;;;;;2.92;2.72;;;24.70;99.90;;;;;;6109066;28;90236;-93
2022/07/04 20:54:26;;;;;;;3.03;2.83;;;24.70;99.90;;;;;;6103759;28;88370;-94
2022/07/04 20:57:29;;;;;;;3.03;2.70;;;24.60;99.90;;;;;;6101193;28;89058;-94
2022/07/04 21:00:31;;;;;;;3.15;2.72;;;24.60;99.90;;;;;;6093528;28;89649;-94
2022/07/04 21:03:59;;;;;;;3.00;2.70;;;24.60;99.90;;;;;;6092730;28;92429;-94
2022/07/04 21:07:01;;;;;;;3.55;2.63;;;24.60;99.90;;;;;;6092308;28;89610;-94
2022/07/04 21:10:04;;;;;;;3.50;2.50;;;24.60;99.90;;;;;;6091230;28;89539;-94
2022/07/04 21:13:06;;;;;;;2.85;2.65;;;24.70;99.90;;;;;;6089833;28;88790;-94
2022/07/04 21:16:08;;;;;;;2.50;2.30;;;24.60;99.90;;;;;;6090370;28;89073;-94
2022/07/04 21:19:12;;;;;;;3.80;2.60;;;24.60;99.90;;;;;;6089880;28;89463;-94
2022/07/04 21:22:15;;;;;;;3.20;2.90;;;24.60;99.90;;;;;;6089067;28;89100;-95
2022/07/04 21:25:17;;;;;;;3.10;2.80;;;24.60;99.90;;;;;;6098859;28;88522;-94
2022/07/04 21:28:19;;;;;;;3.42;2.70;;;24.60;99.90;;;;;;6100036;28;89683;-94
2022/07/04 21:31:21;;;;;;;3.22;2.85;;;24.60;99.90;;;;;;6101734;28;88975;-94
2022/07/04 21:34:27;;;;;;;3.47;2.90;;;24.60;99.90;;;;;;6099088;28;90402;-95
2022/07/04 21:37:29;;;;;;;3.15;2.60;;;24.60;99.90;;;;;;6104404;28;88654;-95
2022/07/04 21:40:44;;;;;;;3.10;2.50;;;24.50;99.90;;;;;;6094278;28;88009;-94
2022/07/04 21:43:47;;;;;;;3.58;2.75;;;24.50;99.90;;;;;;6101288;28;88044;-93
2022/07/04 21:50:08;;;;;;;2.90;2.70;;;24.50;99.90;;;;;;6099434;28;89053;-94
2022/07/04 21:53:10;;;;;;;3.28;2.97;;;24.50;99.90;;;;;;6095421;28;89117;-94
2022/07/04 21:56:17;;;;;;;3.05;2.72;;;24.50;99.90;;;;;;6098821;28;88959;-95
2022/07/04 21:59:19;;;;;;;2.60;2.40;;;24.50;99.90;;;;;;6104897;28;89034;-95
2022/07/04 22:02:21;;;;;;;3.75;2.53;;;24.50;99.90;;;;;;6114003;28;88298;-95
2022/07/04 22:05:25;;;;;;;3.30;3.00;;;24.50;99.90;;;;;;6084385;28;88055;-94
2022/07/04 22:08:27;;;;;;;3.00;2.70;;;24.50;99.90;;;;;;6101257;28;89028;-93
2022/07/04 22:11:29;;;;;;;2.63;2.42;;;24.50;99.90;;;;;;6095943;28;89179;-93
2022/07/04 22:14:31;;;;;;;3.28;2.88;;;24.50;99.90;;;;;;6095806;28;90516;-94
2022/07/04 22:17:33;;;;;;;4.10;2.80;;;24.50;99.90;;;;;;6099703;28;89028;-94
2022/07/04 22:20:37;;;;;;;2.70;2.50;;;24.50;99.90;;;;;;6094817;28;89425;-94
2022/07/04 22:26:55;;;;;;;2.92;2.72;;;24.50;99.90;;;;;;6111492;28;87367;-95
2022/07/04 22:29:57;;;;;;;3.22;2.67;;;24.50;99.90;;;;;;6106712;28;88252;-94
2022/07/04 22:32:59;;;;;;;2.78;2.58;;;24.50;99.90;;;;;;6101759;28;89554;-94
2022/07/04 22:36:02;;;;;;;4.15;2.50;;;24.50;99.90;;;;;;6102112;28;90206;-94
2022/07/04 22:39:04;;;;;;;2.97;2.63;;;24.40;99.90;;;;;;6100843;28;89403;-94
2022/07/04 22:42:07;;;;;;;3.28;2.80;;;24.40;99.90;;;;;;6094212;28;89008;-93
2022/07/04 22:45:11;;;;;;;4.32;2.72;;;24.40;99.90;;;;;;6109610;28;88088;-93
2022/07/04 22:48:22;;;;;;;4.47;2.75;;;24.40;99.90;;;;;;6107564;28;89712;-94
2022/07/04 22:51:25;;;;;;;2.80;2.60;;;24.40;99.90;;;;;;6106304;28;89136;-94
2022/07/04 22:57:44;;;;;;;3.53;2.88;;;24.40;99.90;;;;;;6080092;28;87274;-94
2022/07/04 23:00:48;;;;;;;5.13;3.25;;;24.40;99.90;;;;;;6097936;28;90449;-95
2022/07/04 23:03:50;;;;;;;3.97;3.30;;;24.40;99.90;;;;;;6095753;28;89127;-93
2022/07/04 23:06:55;;;;;;;5.20;3.50;;;24.40;99.90;;;;;;6100372;28;90015;-94
2022/07/04 23:09:57;;;;;;;5.53;3.60;;;24.30;99.90;;;;;;6087471;28;88035;-94
2022/07/04 23:13:03;;;;;;;3.78;3.30;;;24.30;99.90;;;;;;6089905;28;88060;-94
2022/07/04 23:16:06;;;;;;;3.85;3.20;;;24.30;99.90;;;;;;6092274;28;89120;-93
2022/07/04 23:19:09;;;;;;;3.60;3.30;;;24.20;99.90;;;;;;6090255;28;89381;-93
2022/07/04 23:22:12;;;;;;;3.17;2.88;;;24.10;99.90;;;;;;6091017;28;89288;-94
2022/07/04 23:32:00;;;;;;;2.60;2.40;;;24.00;99.90;;;;;;6094292;28;90109;-94
2022/07/04 23:35:02;;;;;;;3.20;2.50;;;24.00;99.90;;;;;;6093674;28;87241;-94
2022/07/04 23:38:29;;;;;;;2.63;2.40;;;24.00;99.90;;;;;;6090847;28;90110;-94
2022/07/04 23:41:34;;;;;;;2.58;2.33;;;23.90;99.90;;;;;;6094052;28;88628;-94
2022/07/04 23:44:39;;;;;;;2.90;2.60;;;24.00;99.90;;;;;;6087958;28;89241;-93
2022/07/04 23:47:41;;;;;;;3.50;2.42;;;23.90;99.90;;;;;;6090059;28;89138;-94
2022/07/04 23:50:44;;;;;;;2.88;2.22;;;23.90;99.90;;;;;;6087367;28;88325;-94
2022/07/04 23:53:47;;;;;;;3.95;2.20;;;23.80;99.90;;;;;;6090519;28;89040;-94
2022/07/04 23:56:49;;;;;;;3.47;2.20;;;23.80;99.90;;;;;;6087104;28;89414;-93
2022/07/04 23:59:52;;;;;;;2.25;2.03;;;23.70;99.90;;;;;;6088093;28;88702;-94
